Kodiak Airport
PADQ : now visible

Airfield :











YOU CAN JOIN US ON...

 
LOGIN :

Register | Disclaimer

   EN    FR    IT 

 









Legend :    VFR   Marginal VFR   IFR   Intensive IFR   Very Intensive IFR
Visi :
Ceiling :
>= 8 km
>= 3000ft
5 to 8 km
1000 to 3000 ft
1500m to 5 km
500 to 1000 ft
800 to 1500m
200 to 500 ft
< 800m
< 200 ft
Symbols :   Thunderstorms  Fog  Heavy snow  Heavy precipitations  Wind > 20 kt






- Airport Elevation : 78 ft
- IATA code : ADQ


PADQ - Kodiak

CURRENT METAR :
  • 151753Z 34015G23KT 10SM OVC028 06/01 A2908 RMK RAE1659B21E35 SLP848 P0000 60014 T00610011 10061 20050 55003 $ VIA AUTODIAL

EXPIRED METARs :
  • 151702Z 36011G19KT 10SM BKN030 BKN035 OVC047 06/02 A2908 RMK AO2 RAE1659 P0000 T00610017 $
  • 151553Z 34011G19KT 10SM -RA BKN023 OVC031 06/02 A2908 RMK AO2 SLP848 P0000 T00560017 $
  • 151543Z 33010KT 10SM -RA BKN023 OVC031 06/02 A2909 RMK AO2 P0000 T00560022 $

TAF PADQ
Valid from the 15 at 18:00 until the 16 at 18:00 UTC


151721Z 1518/1618 34012G20KT 6SM -RA BR OVC025
FM160300 31009KT P6SM VCSH SCT015 BKN035
FM160600 27006KT P6SM SCT025 BKN040



MET'MAP, your aeronautical weather chart ! - Copyright ORBIFLY December 2007 - Disclaimer

ORBIFLY MET'MAP TEAM :

Programming & Development : Alexandra Zaïnal
Concept & Development : Baudouin d'Aumeries
Co-Development & Prog : Marc-Olivier Méhu
Technical & hardware support : Manuel Goepfert

Contact : metmap@orbifly.com




SOURCES & CREDITS :

   NOAA       Earth
Advisory